sensor_id;sensor_type;location;lat;lon;timestamp;P1;durP1;ratioP1;P2;durP2;ratioP2
19482;SDS011;9882;51.166;6.992;2022-08-19T00:01:27;7.85;;;3.90;;
19482;SDS011;9882;51.166;6.992;2022-08-19T00:03:58;5.65;;;3.42;;
19482;SDS011;9882;51.166;6.992;2022-08-19T00:06:27;6.32;;;3.17;;
19482;SDS011;9882;51.166;6.992;2022-08-19T00:08:57;8.38;;;3.90;;
19482;SDS011;9882;51.166;6.992;2022-08-19T00:11:27;6.15;;;3.63;;
19482;SDS011;9882;51.166;6.992;2022-08-19T00:13:56;5.95;;;3.63;;
19482;SDS011;9882;51.166;6.992;2022-08-19T00:16:27;9.95;;;4.53;;
19482;SDS011;9882;51.166;6.992;2022-08-19T00:18:55;5.30;;;3.13;;
19482;SDS011;9882;51.166;6.992;2022-08-19T00:21:24;7.00;;;3.60;;
19482;SDS011;9882;51.166;6.992;2022-08-19T00:23:54;8.88;;;4.00;;
19482;SDS011;9882;51.166;6.992;2022-08-19T00:26:25;11.25;;;4.13;;
19482;SDS011;9882;51.166;6.992;2022-08-19T00:28:54;11.10;;;4.35;;
19482;SDS011;9882;51.166;6.992;2022-08-19T00:31:23;9.55;;;4.10;;
19482;SDS011;9882;51.166;6.992;2022-08-19T00:33:55;7.45;;;3.88;;
19482;SDS011;9882;51.166;6.992;2022-08-19T00:36:24;13.52;;;4.70;;
19482;SDS011;9882;51.166;6.992;2022-08-19T00:38:53;8.65;;;3.67;;
19482;SDS011;9882;51.166;6.992;2022-08-19T00:41:23;9.25;;;4.00;;
19482;SDS011;9882;51.166;6.992;2022-08-19T00:43:57;8.23;;;4.35;;
19482;SDS011;9882;51.166;6.992;2022-08-19T00:46:27;9.13;;;4.00;;
19482;SDS011;9882;51.166;6.992;2022-08-19T00:48:58;8.20;;;4.13;;
19482;SDS011;9882;51.166;6.992;2022-08-19T00:51:27;11.90;;;4.30;;
19482;SDS011;9882;51.166;6.992;2022-08-19T00:53:59;14.30;;;4.55;;
19482;SDS011;9882;51.166;6.992;2022-08-19T00:56:29;9.10;;;4.43;;
19482;SDS011;9882;51.166;6.992;2022-08-19T00:58:59;7.90;;;3.78;;
19482;SDS011;9882;51.166;6.992;2022-08-19T01:01:29;8.00;;;4.28;;
19482;SDS011;9882;51.166;6.992;2022-08-19T01:03:59;8.05;;;3.78;;
19482;SDS011;9882;51.166;6.992;2022-08-19T01:06:28;6.35;;;3.78;;
19482;SDS011;9882;51.166;6.992;2022-08-19T01:08:58;9.27;;;4.00;;
19482;SDS011;9882;51.166;6.992;2022-08-19T01:11:27;7.80;;;4.05;;
19482;SDS011;9882;51.166;6.992;2022-08-19T01:13:57;7.30;;;3.65;;
19482;SDS011;9882;51.166;6.992;2022-08-19T01:16:27;6.38;;;3.53;;
19482;SDS011;9882;51.166;6.992;2022-08-19T01:18:57;9.65;;;3.70;;
19482;SDS011;9882;51.166;6.992;2022-08-19T01:21:29;6.60;;;3.40;;
19482;SDS011;9882;51.166;6.992;2022-08-19T01:24:03;10.43;;;4.00;;
19482;SDS011;9882;51.166;6.992;2022-08-19T01:26:37;7.18;;;3.85;;
19482;SDS011;9882;51.166;6.992;2022-08-19T01:29:08;8.35;;;4.03;;
19482;SDS011;9882;51.166;6.992;2022-08-19T01:31:37;8.52;;;3.90;;
19482;SDS011;9882;51.166;6.992;2022-08-19T01:34:06;10.40;;;4.18;;
19482;SDS011;9882;51.166;6.992;2022-08-19T01:36:37;11.02;;;4.10;;
19482;SDS011;9882;51.166;6.992;2022-08-19T01:39:11;8.32;;;4.13;;
19482;SDS011;9882;51.166;6.992;2022-08-19T01:41:42;7.05;;;3.67;;
19482;SDS011;9882;51.166;6.992;2022-08-19T01:44:10;7.10;;;4.00;;
19482;SDS011;9882;51.166;6.992;2022-08-19T01:46:40;8.90;;;3.35;;
19482;SDS011;9882;51.166;6.992;2022-08-19T01:49:10;11.00;;;4.60;;
19482;SDS011;9882;51.166;6.992;2022-08-19T01:51:39;8.63;;;4.00;;
19482;SDS011;9882;51.166;6.992;2022-08-19T01:54:07;9.30;;;4.78;;
19482;SDS011;9882;51.166;6.992;2022-08-19T01:56:40;6.75;;;3.70;;
19482;SDS011;9882;51.166;6.992;2022-08-19T01:59:10;7.53;;;4.00;;
19482;SDS011;9882;51.166;6.992;2022-08-19T02:01:42;8.73;;;4.03;;
19482;SDS011;9882;51.166;6.992;2022-08-19T02:04:10;8.60;;;4.25;;
19482;SDS011;9882;51.166;6.992;2022-08-19T02:06:39;7.50;;;4.07;;
19482;SDS011;9882;51.166;6.992;2022-08-19T02:09:09;11.15;;;4.25;;
19482;SDS011;9882;51.166;6.992;2022-08-19T02:11:38;6.95;;;3.78;;
19482;SDS011;9882;51.166;6.992;2022-08-19T02:14:07;6.80;;;3.58;;
19482;SDS011;9882;51.166;6.992;2022-08-19T02:16:36;7.28;;;3.97;;
19482;SDS011;9882;51.166;6.992;2022-08-19T02:19:07;7.70;;;4.07;;
19482;SDS011;9882;51.166;6.992;2022-08-19T02:21:37;6.47;;;3.97;;
19482;SDS011;9882;51.166;6.992;2022-08-19T02:24:05;8.10;;;3.92;;
19482;SDS011;9882;51.166;6.992;2022-08-19T02:26:36;9.73;;;4.28;;
19482;SDS011;9882;51.166;6.992;2022-08-19T02:29:04;6.82;;;3.67;;
19482;SDS011;9882;51.166;6.992;2022-08-19T02:31:33;7.72;;;4.05;;
19482;SDS011;9882;51.166;6.992;2022-08-19T02:34:01;7.20;;;4.18;;
19482;SDS011;9882;51.166;6.992;2022-08-19T02:36:30;13.32;;;4.35;;
19482;SDS011;9882;51.166;6.992;2022-08-19T02:38:59;12.35;;;4.85;;
19482;SDS011;9882;51.166;6.992;2022-08-19T02:41:28;7.22;;;3.72;;
19482;SDS011;9882;51.166;6.992;2022-08-19T02:44:00;13.82;;;4.53;;
19482;SDS011;9882;51.166;6.992;2022-08-19T02:46:31;10.73;;;3.97;;
19482;SDS011;9882;51.166;6.992;2022-08-19T02:49:01;9.68;;;4.80;;
19482;SDS011;9882;51.166;6.992;2022-08-19T02:51:32;9.32;;;4.30;;
19482;SDS011;9882;51.166;6.992;2022-08-19T02:54:02;5.28;;;3.70;;
19482;SDS011;9882;51.166;6.992;2022-08-19T02:56:33;8.85;;;4.57;;
19482;SDS011;9882;51.166;6.992;2022-08-19T02:59:04;8.82;;;4.07;;
19482;SDS011;9882;51.166;6.992;2022-08-19T03:01:38;11.30;;;4.32;;
19482;SDS011;9882;51.166;6.992;2022-08-19T03:04:08;7.97;;;4.13;;
19482;SDS011;9882;51.166;6.992;2022-08-19T03:06:41;9.73;;;4.82;;
19482;SDS011;9882;51.166;6.992;2022-08-19T03:09:11;9.73;;;4.43;;
19482;SDS011;9882;51.166;6.992;2022-08-19T03:11:40;8.77;;;4.03;;
19482;SDS011;9882;51.166;6.992;2022-08-19T03:14:10;10.82;;;4.60;;
19482;SDS011;9882;51.166;6.992;2022-08-19T03:16:42;9.10;;;4.68;;
19482;SDS011;9882;51.166;6.992;2022-08-19T03:19:12;11.90;;;5.05;;
19482;SDS011;9882;51.166;6.992;2022-08-19T03:21:42;10.05;;;4.35;;
19482;SDS011;9882;51.166;6.992;2022-08-19T03:24:12;10.82;;;4.78;;
19482;SDS011;9882;51.166;6.992;2022-08-19T03:26:43;7.47;;;3.92;;
19482;SDS011;9882;51.166;6.992;2022-08-19T03:29:15;6.10;;;3.65;;
19482;SDS011;9882;51.166;6.992;2022-08-19T03:31:44;7.50;;;4.15;;
19482;SDS011;9882;51.166;6.992;2022-08-19T03:34:14;15.73;;;5.60;;
19482;SDS011;9882;51.166;6.992;2022-08-19T03:36:45;9.95;;;4.85;;
19482;SDS011;9882;51.166;6.992;2022-08-19T03:39:15;8.88;;;4.43;;
19482;SDS011;9882;51.166;6.992;2022-08-19T03:41:45;5.60;;;3.75;;
19482;SDS011;9882;51.166;6.992;2022-08-19T03:44:17;6.25;;;3.67;;
19482;SDS011;9882;51.166;6.992;2022-08-19T03:46:49;11.32;;;4.78;;
19482;SDS011;9882;51.166;6.992;2022-08-19T03:49:23;11.13;;;4.53;;
19482;SDS011;9882;51.166;6.992;2022-08-19T03:51:55;12.50;;;5.25;;
19482;SDS011;9882;51.166;6.992;2022-08-19T03:54:26;13.02;;;5.15;;
19482;SDS011;9882;51.166;6.992;2022-08-19T03:56:55;11.30;;;4.70;;
19482;SDS011;9882;51.166;6.992;2022-08-19T03:59:27;11.40;;;4.82;;
19482;SDS011;9882;51.166;6.992;2022-08-19T04:01:58;12.07;;;5.30;;
19482;SDS011;9882;51.166;6.992;2022-08-19T04:04:29;10.63;;;4.63;;
19482;SDS011;9882;51.166;6.992;2022-08-19T04:06:58;8.27;;;4.43;;
19482;SDS011;9882;51.166;6.992;2022-08-19T04:09:26;8.63;;;4.75;;
19482;SDS011;9882;51.166;6.992;2022-08-19T04:11:55;10.70;;;4.70;;
19482;SDS011;9882;51.166;6.992;2022-08-19T04:14:29;15.95;;;5.45;;
19482;SDS011;9882;51.166;6.992;2022-08-19T04:16:58;9.27;;;4.72;;
19482;SDS011;9882;51.166;6.992;2022-08-19T04:19:30;18.05;;;5.90;;
19482;SDS011;9882;51.166;6.992;2022-08-19T04:21:59;12.40;;;5.32;;
19482;SDS011;9882;51.166;6.992;2022-08-19T04:24:28;10.73;;;4.85;;
19482;SDS011;9882;51.166;6.992;2022-08-19T04:26:58;12.77;;;4.97;;
19482;SDS011;9882;51.166;6.992;2022-08-19T04:29:28;8.23;;;4.68;;
19482;SDS011;9882;51.166;6.992;2022-08-19T04:31:58;10.55;;;4.90;;
19482;SDS011;9882;51.166;6.992;2022-08-19T04:34:28;16.55;;;5.75;;
19482;SDS011;9882;51.166;6.992;2022-08-19T04:36:57;6.57;;;4.03;;
19482;SDS011;9882;51.166;6.992;2022-08-19T04:39:27;9.48;;;4.38;;
19482;SDS011;9882;51.166;6.992;2022-08-19T04:42:11;12.10;;;5.22;;
19482;SDS011;9882;51.166;6.992;2022-08-19T04:44:59;10.73;;;4.72;;
19482;SDS011;9882;51.166;6.992;2022-08-19T04:47:29;13.23;;;5.38;;
19482;SDS011;9882;51.166;6.992;2022-08-19T04:49:59;10.43;;;4.55;;
19482;SDS011;9882;51.166;6.992;2022-08-19T04:52:28;10.68;;;4.35;;
19482;SDS011;9882;51.166;6.992;2022-08-19T04:54:58;14.52;;;5.28;;
19482;SDS011;9882;51.166;6.992;2022-08-19T04:57:27;10.88;;;5.20;;
19482;SDS011;9882;51.166;6.992;2022-08-19T04:59:56;14.35;;;5.43;;
19482;SDS011;9882;51.166;6.992;2022-08-19T05:02:26;12.55;;;5.65;;
19482;SDS011;9882;51.166;6.992;2022-08-19T05:04:56;12.52;;;5.70;;
19482;SDS011;9882;51.166;6.992;2022-08-19T05:07:32;15.00;;;6.10;;
19482;SDS011;9882;51.166;6.992;2022-08-19T05:10:03;13.60;;;5.40;;
19482;SDS011;9882;51.166;6.992;2022-08-19T05:12:37;15.75;;;6.03;;
19482;SDS011;9882;51.166;6.992;2022-08-19T05:15:08;14.88;;;6.07;;
19482;SDS011;9882;51.166;6.992;2022-08-19T05:17:42;14.43;;;5.88;;
19482;SDS011;9882;51.166;6.992;2022-08-19T05:20:28;17.90;;;6.63;;
19482;SDS011;9882;51.166;6.992;2022-08-19T05:23:14;20.15;;;8.52;;
19482;SDS011;9882;51.166;6.992;2022-08-19T05:25:54;20.10;;;6.55;;
19482;SDS011;9882;51.166;6.992;2022-08-19T05:28:26;23.33;;;10.73;;
19482;SDS011;9882;51.166;6.992;2022-08-19T05:31:04;13.57;;;6.10;;
19482;SDS011;9882;51.166;6.992;2022-08-19T05:33:39;17.05;;;7.45;;
19482;SDS011;9882;51.166;6.992;2022-08-19T05:36:15;13.95;;;6.63;;
19482;SDS011;9882;51.166;6.992;2022-08-19T05:38:52;27.45;;;12.07;;
19482;SDS011;9882;51.166;6.992;2022-08-19T05:41:50;25.70;;;11.27;;
19482;SDS011;9882;51.166;6.992;2022-08-19T05:44:34;17.13;;;7.55;;
19482;SDS011;9882;51.166;6.992;2022-08-19T05:47:06;17.75;;;8.00;;
19482;SDS011;9882;51.166;6.992;2022-08-19T05:49:37;14.77;;;7.22;;
19482;SDS011;9882;51.166;6.992;2022-08-19T05:52:08;18.30;;;8.63;;
19482;SDS011;9882;51.166;6.992;2022-08-19T05:54:39;21.80;;;8.57;;
19482;SDS011;9882;51.166;6.992;2022-08-19T05:57:11;19.38;;;7.57;;
19482;SDS011;9882;51.166;6.992;2022-08-19T05:59:40;18.27;;;8.57;;
19482;SDS011;9882;51.166;6.992;2022-08-19T06:02:09;19.67;;;8.98;;
19482;SDS011;9882;51.166;6.992;2022-08-19T06:04:39;28.67;;;12.57;;
19482;SDS011;9882;51.166;6.992;2022-08-19T06:07:09;21.83;;;10.07;;
19482;SDS011;9882;51.166;6.992;2022-08-19T06:09:38;26.00;;;10.48;;
19482;SDS011;9882;51.166;6.992;2022-08-19T06:12:07;21.23;;;8.95;;
19482;SDS011;9882;51.166;6.992;2022-08-19T06:14:35;26.42;;;10.48;;
19482;SDS011;9882;51.166;6.992;2022-08-19T06:17:04;21.63;;;9.73;;
19482;SDS011;9882;51.166;6.992;2022-08-19T06:19:33;25.10;;;10.18;;
19482;SDS011;9882;51.166;6.992;2022-08-19T06:22:03;22.63;;;9.30;;
19482;SDS011;9882;51.166;6.992;2022-08-19T06:24:32;22.27;;;9.30;;
19482;SDS011;9882;51.166;6.992;2022-08-19T06:27:02;21.98;;;9.98;;
19482;SDS011;9882;51.166;6.992;2022-08-19T06:29:32;40.08;;;19.80;;
19482;SDS011;9882;51.166;6.992;2022-08-19T06:32:02;36.55;;;17.20;;
19482;SDS011;9882;51.166;6.992;2022-08-19T06:34:33;32.47;;;16.33;;
19482;SDS011;9882;51.166;6.992;2022-08-19T06:37:04;30.88;;;12.70;;
19482;SDS011;9882;51.166;6.992;2022-08-19T06:39:33;26.92;;;11.48;;
19482;SDS011;9882;51.166;6.992;2022-08-19T06:42:05;24.58;;;11.38;;
19482;SDS011;9882;51.166;6.992;2022-08-19T06:44:36;45.65;;;21.27;;
19482;SDS011;9882;51.166;6.992;2022-08-19T06:47:07;29.55;;;12.95;;
19482;SDS011;9882;51.166;6.992;2022-08-19T06:49:36;41.22;;;20.15;;
19482;SDS011;9882;51.166;6.992;2022-08-19T06:52:07;36.75;;;15.25;;
19482;SDS011;9882;51.166;6.992;2022-08-19T06:54:38;48.92;;;26.08;;
19482;SDS011;9882;51.166;6.992;2022-08-19T06:57:08;44.92;;;25.60;;
19482;SDS011;9882;51.166;6.992;2022-08-19T06:59:42;42.45;;;24.67;;
19482;SDS011;9882;51.166;6.992;2022-08-19T07:02:10;42.15;;;23.17;;
19482;SDS011;9882;51.166;6.992;2022-08-19T07:04:39;42.75;;;24.23;;
19482;SDS011;9882;51.166;6.992;2022-08-19T07:07:10;47.55;;;21.55;;
19482;SDS011;9882;51.166;6.992;2022-08-19T07:09:41;30.75;;;13.70;;
19482;SDS011;9882;51.166;6.992;2022-08-19T07:12:12;49.60;;;25.60;;
19482;SDS011;9882;51.166;6.992;2022-08-19T07:14:42;35.35;;;17.00;;
19482;SDS011;9882;51.166;6.992;2022-08-19T07:17:11;52.40;;;28.48;;
19482;SDS011;9882;51.166;6.992;2022-08-19T07:19:41;56.42;;;28.42;;
19482;SDS011;9882;51.166;6.992;2022-08-19T07:22:13;41.00;;;20.65;;
19482;SDS011;9882;51.166;6.992;2022-08-19T07:24:41;55.50;;;28.08;;
19482;SDS011;9882;51.166;6.992;2022-08-19T07:27:10;57.17;;;28.73;;
19482;SDS011;9882;51.166;6.992;2022-08-19T07:29:41;35.90;;;15.82;;
19482;SDS011;9882;51.166;6.992;2022-08-19T07:32:09;56.00;;;29.27;;
19482;SDS011;9882;51.166;6.992;2022-08-19T07:34:38;58.90;;;29.15;;
19482;SDS011;9882;51.166;6.992;2022-08-19T07:37:07;35.85;;;17.83;;
19482;SDS011;9882;51.166;6.992;2022-08-19T07:39:37;52.13;;;29.33;;
19482;SDS011;9882;51.166;6.992;2022-08-19T07:42:08;52.03;;;28.48;;
19482;SDS011;9882;51.166;6.992;2022-08-19T07:44:38;42.63;;;24.40;;
19482;SDS011;9882;51.166;6.992;2022-08-19T07:47:07;55.13;;;29.48;;
19482;SDS011;9882;51.166;6.992;2022-08-19T07:49:36;47.72;;;25.45;;
19482;SDS011;9882;51.166;6.992;2022-08-19T07:52:06;59.83;;;31.25;;
19482;SDS011;9882;51.166;6.992;2022-08-19T07:54:38;53.22;;;27.80;;
19482;SDS011;9882;51.166;6.992;2022-08-19T07:57:07;55.67;;;29.30;;
19482;SDS011;9882;51.166;6.992;2022-08-19T07:59:36;53.78;;;27.65;;
19482;SDS011;9882;51.166;6.992;2022-08-19T08:02:05;39.78;;;21.45;;
19482;SDS011;9882;51.166;6.992;2022-08-19T08:04:34;47.25;;;25.52;;
19482;SDS011;9882;51.166;6.992;2022-08-19T08:07:20;53.88;;;28.45;;
19482;SDS011;9882;51.166;6.992;2022-08-19T08:10:13;48.95;;;27.58;;
19482;SDS011;9882;51.166;6.992;2022-08-19T08:12:42;50.08;;;28.30;;
19482;SDS011;9882;51.166;6.992;2022-08-19T08:15:13;34.90;;;15.68;;
19482;SDS011;9882;51.166;6.992;2022-08-19T08:17:45;56.90;;;28.05;;
19482;SDS011;9882;51.166;6.992;2022-08-19T08:20:21;46.13;;;26.42;;
19482;SDS011;9882;51.166;6.992;2022-08-19T08:23:15;50.13;;;25.52;;
19482;SDS011;9882;51.166;6.992;2022-08-19T08:26:03;52.65;;;25.48;;
19482;SDS011;9882;51.166;6.992;2022-08-19T08:28:44;37.50;;;16.73;;
19482;SDS011;9882;51.166;6.992;2022-08-19T08:31:25;30.60;;;14.65;;
19482;SDS011;9882;51.166;6.992;2022-08-19T08:34:19;39.03;;;14.13;;
19482;SDS011;9882;51.166;6.992;2022-08-19T08:36:58;44.55;;;22.67;;
19482;SDS011;9882;51.166;6.992;2022-08-19T08:39:32;51.30;;;23.00;;
19482;SDS011;9882;51.166;6.992;2022-08-19T08:42:05;44.53;;;23.88;;
19482;SDS011;9882;51.166;6.992;2022-08-19T08:44:40;38.40;;;19.77;;
19482;SDS011;9882;51.166;6.992;2022-08-19T08:47:22;36.28;;;16.85;;
19482;SDS011;9882;51.166;6.992;2022-08-19T08:49:56;42.22;;;18.35;;
19482;SDS011;9882;51.166;6.992;2022-08-19T08:52:31;38.13;;;14.80;;
19482;SDS011;9882;51.166;6.992;2022-08-19T08:55:03;44.63;;;20.92;;
19482;SDS011;9882;51.166;6.992;2022-08-19T08:57:49;31.70;;;14.38;;
19482;SDS011;9882;51.166;6.992;2022-08-19T09:00:24;34.35;;;13.65;;
19482;SDS011;9882;51.166;6.992;2022-08-19T09:03:02;39.33;;;16.55;;
19482;SDS011;9882;51.166;6.992;2022-08-19T09:05:49;38.15;;;18.50;;
19482;SDS011;9882;51.166;6.992;2022-08-19T09:08:45;38.83;;;18.70;;
19482;SDS011;9882;51.166;6.992;2022-08-19T09:11:46;39.67;;;19.15;;
19482;SDS011;9882;51.166;6.992;2022-08-19T09:14:37;40.63;;;17.77;;
19482;SDS011;9882;51.166;6.992;2022-08-19T09:17:20;39.90;;;15.98;;
19482;SDS011;9882;51.166;6.992;2022-08-19T09:20:21;38.13;;;19.17;;
19482;SDS011;9882;51.166;6.992;2022-08-19T09:22:59;39.58;;;19.23;;
19482;SDS011;9882;51.166;6.992;2022-08-19T09:25:39;36.60;;;17.63;;
19482;SDS011;9882;51.166;6.992;2022-08-19T09:28:15;40.20;;;18.48;;
19482;SDS011;9882;51.166;6.992;2022-08-19T09:31:05;40.28;;;19.42;;
19482;SDS011;9882;51.166;6.992;2022-08-19T09:33:42;37.28;;;17.55;;
19482;SDS011;9882;51.166;6.992;2022-08-19T09:36:30;37.60;;;17.92;;
19482;SDS011;9882;51.166;6.992;2022-08-19T09:39:05;29.77;;;12.32;;
19482;SDS011;9882;51.166;6.992;2022-08-19T09:41:37;31.30;;;15.60;;
19482;SDS011;9882;51.166;6.992;2022-08-19T09:44:22;40.72;;;19.20;;
19482;SDS011;9882;51.166;6.992;2022-08-19T09:46:52;43.03;;;20.33;;
19482;SDS011;9882;51.166;6.992;2022-08-19T09:49:21;41.88;;;19.15;;
19482;SDS011;9882;51.166;6.992;2022-08-19T09:51:51;60.88;;;19.45;;
19482;SDS011;9882;51.166;6.992;2022-08-19T09:54:25;46.90;;;19.30;;
19482;SDS011;9882;51.166;6.992;2022-08-19T09:56:55;38.67;;;17.80;;
19482;SDS011;9882;51.166;6.992;2022-08-19T09:59:27;32.33;;;14.77;;
19482;SDS011;9882;51.166;6.992;2022-08-19T10:02:03;32.90;;;15.80;;
19482;SDS011;9882;51.166;6.992;2022-08-19T10:04:32;36.88;;;15.95;;
19482;SDS011;9882;51.166;6.992;2022-08-19T10:07:15;30.52;;;12.82;;
19482;SDS011;9882;51.166;6.992;2022-08-19T10:09:48;31.15;;;13.77;;
19482;SDS011;9882;51.166;6.992;2022-08-19T10:12:20;34.47;;;10.60;;
19482;SDS011;9882;51.166;6.992;2022-08-19T10:14:49;33.00;;;14.70;;
19482;SDS011;9882;51.166;6.992;2022-08-19T10:17:19;47.92;;;17.17;;
19482;SDS011;9882;51.166;6.992;2022-08-19T10:19:51;24.35;;;10.45;;
19482;SDS011;9882;51.166;6.992;2022-08-19T10:22:25;30.98;;;12.23;;
19482;SDS011;9882;51.166;6.992;2022-08-19T10:24:54;33.72;;;15.10;;
19482;SDS011;9882;51.166;6.992;2022-08-19T10:27:23;33.00;;;14.10;;
19482;SDS011;9882;51.166;6.992;2022-08-19T10:29:52;30.75;;;15.02;;
19482;SDS011;9882;51.166;6.992;2022-08-19T10:32:22;26.75;;;10.25;;
19482;SDS011;9882;51.166;6.992;2022-08-19T10:34:52;33.25;;;13.07;;
19482;SDS011;9882;51.166;6.992;2022-08-19T10:37:23;29.90;;;12.57;;
19482;SDS011;9882;51.166;6.992;2022-08-19T10:39:51;26.40;;;10.48;;
19482;SDS011;9882;51.166;6.992;2022-08-19T10:42:22;23.73;;;9.57;;
19482;SDS011;9882;51.166;6.992;2022-08-19T10:44:54;28.75;;;11.55;;
19482;SDS011;9882;51.166;6.992;2022-08-19T10:47:33;34.33;;;13.00;;
19482;SDS011;9882;51.166;6.992;2022-08-19T10:50:48;33.42;;;12.23;;
19482;SDS011;9882;51.166;6.992;2022-08-19T10:53:46;30.00;;;12.35;;
19482;SDS011;9882;51.166;6.992;2022-08-19T10:56:21;28.63;;;12.23;;
19482;SDS011;9882;51.166;6.992;2022-08-19T10:59:15;25.38;;;11.35;;
19482;SDS011;9882;51.166;6.992;2022-08-19T11:01:50;19.05;;;8.10;;
19482;SDS011;9882;51.166;6.992;2022-08-19T11:04:30;26.13;;;11.40;;
19482;SDS011;9882;51.166;6.992;2022-08-19T11:07:36;25.63;;;10.80;;
19482;SDS011;9882;51.166;6.992;2022-08-19T11:10:16;26.38;;;11.52;;
19482;SDS011;9882;51.166;6.992;2022-08-19T11:13:11;18.45;;;7.40;;
19482;SDS011;9882;51.166;6.992;2022-08-19T11:15:55;27.27;;;11.07;;
19482;SDS011;9882;51.166;6.992;2022-08-19T11:18:28;25.33;;;10.75;;
19482;SDS011;9882;51.166;6.992;2022-08-19T11:21:09;25.70;;;10.10;;
19482;SDS011;9882;51.166;6.992;2022-08-19T11:23:44;23.45;;;10.25;;
19482;SDS011;9882;51.166;6.992;2022-08-19T11:26:13;27.58;;;9.23;;
19482;SDS011;9882;51.166;6.992;2022-08-19T11:28:45;17.45;;;8.38;;
19482;SDS011;9882;51.166;6.992;2022-08-19T11:31:16;21.70;;;9.18;;
19482;SDS011;9882;51.166;6.992;2022-08-19T11:33:48;23.33;;;9.02;;
19482;SDS011;9882;51.166;6.992;2022-08-19T11:36:19;18.85;;;7.35;;
19482;SDS011;9882;51.166;6.992;2022-08-19T11:38:51;24.48;;;9.55;;
19482;SDS011;9882;51.166;6.992;2022-08-19T11:41:21;21.15;;;8.88;;
19482;SDS011;9882;51.166;6.992;2022-08-19T11:43:52;16.50;;;7.28;;
19482;SDS011;9882;51.166;6.992;2022-08-19T11:46:22;20.27;;;8.27;;
19482;SDS011;9882;51.166;6.992;2022-08-19T11:48:52;23.38;;;9.38;;
19482;SDS011;9882;51.166;6.992;2022-08-19T11:51:23;17.65;;;8.07;;
19482;SDS011;9882;51.166;6.992;2022-08-19T11:53:52;18.65;;;7.78;;
19482;SDS011;9882;51.166;6.992;2022-08-19T11:56:22;19.70;;;7.40;;
19482;SDS011;9882;51.166;6.992;2022-08-19T11:59:27;20.20;;;7.35;;
19482;SDS011;9882;51.166;6.992;2022-08-19T12:01:45;20.52;;;7.78;;
19482;SDS011;9882;51.166;6.992;2022-08-19T12:04:15;15.38;;;6.78;;
19482;SDS011;9882;51.166;6.992;2022-08-19T12:07:02;11.35;;;5.50;;
19482;SDS011;9882;51.166;6.992;2022-08-19T12:09:31;16.20;;;6.78;;
19482;SDS011;9882;51.166;6.992;2022-08-19T12:12:11;16.02;;;6.25;;
19482;SDS011;9882;51.166;6.992;2022-08-19T12:14:59;15.45;;;6.72;;
19482;SDS011;9882;51.166;6.992;2022-08-19T12:17:49;13.15;;;5.65;;
19482;SDS011;9882;51.166;6.992;2022-08-19T12:20:33;13.18;;;6.07;;
19482;SDS011;9882;51.166;6.992;2022-08-19T12:23:51;16.10;;;6.20;;
19482;SDS011;9882;51.166;6.992;2022-08-19T12:26:54;12.52;;;5.75;;
19482;SDS011;9882;51.166;6.992;2022-08-19T12:29:37;30.77;;;7.90;;
19482;SDS011;9882;51.166;6.992;2022-08-19T12:32:28;19.77;;;7.13;;
19482;SDS011;9882;51.166;6.992;2022-08-19T12:35:07;11.85;;;5.57;;
19482;SDS011;9882;51.166;6.992;2022-08-19T12:37:40;14.48;;;5.90;;
19482;SDS011;9882;51.166;6.992;2022-08-19T12:40:18;13.05;;;5.95;;
19482;SDS011;9882;51.166;6.992;2022-08-19T12:42:55;24.40;;;5.93;;
19482;SDS011;9882;51.166;6.992;2022-08-19T12:45:28;14.65;;;5.78;;
19482;SDS011;9882;51.166;6.992;2022-08-19T12:47:59;15.90;;;5.40;;
19482;SDS011;9882;51.166;6.992;2022-08-19T12:50:32;9.73;;;4.80;;
19482;SDS011;9882;51.166;6.992;2022-08-19T12:53:04;18.48;;;5.40;;
19482;SDS011;9882;51.166;6.992;2022-08-19T12:55:40;10.65;;;5.30;;
19482;SDS011;9882;51.166;6.992;2022-08-19T12:58:10;18.00;;;6.05;;
19482;SDS011;9882;51.166;6.992;2022-08-19T13:00:40;11.40;;;5.25;;
19482;SDS011;9882;51.166;6.992;2022-08-19T13:03:08;20.75;;;6.45;;
19482;SDS011;9882;51.166;6.992;2022-08-19T13:05:37;12.65;;;5.32;;
19482;SDS011;9882;51.166;6.992;2022-08-19T13:08:06;15.40;;;5.60;;
19482;SDS011;9882;51.166;6.992;2022-08-19T13:10:37;11.65;;;5.65;;
19482;SDS011;9882;51.166;6.992;2022-08-19T13:13:08;8.40;;;4.70;;
19482;SDS011;9882;51.166;6.992;2022-08-19T13:15:38;14.13;;;5.88;;
19482;SDS011;9882;51.166;6.992;2022-08-19T13:18:09;9.93;;;4.97;;
19482;SDS011;9882;51.166;6.992;2022-08-19T13:20:39;14.70;;;6.03;;
19482;SDS011;9882;51.166;6.992;2022-08-19T13:23:08;13.45;;;4.82;;
19482;SDS011;9882;51.166;6.992;2022-08-19T13:25:37;8.32;;;4.55;;
19482;SDS011;9882;51.166;6.992;2022-08-19T13:28:12;13.65;;;5.55;;
19482;SDS011;9882;51.166;6.992;2022-08-19T13:30:46;10.10;;;4.88;;
19482;SDS011;9882;51.166;6.992;2022-08-19T13:33:34;11.80;;;4.60;;
19482;SDS011;9882;51.166;6.992;2022-08-19T13:36:03;22.17;;;4.93;;
19482;SDS011;9882;51.166;6.992;2022-08-19T13:38:34;11.20;;;4.22;;
19482;SDS011;9882;51.166;6.992;2022-08-19T13:41:06;13.20;;;4.70;;
19482;SDS011;9882;51.166;6.992;2022-08-19T13:43:41;14.60;;;4.60;;
19482;SDS011;9882;51.166;6.992;2022-08-19T13:46:10;8.68;;;4.03;;
19482;SDS011;9882;51.166;6.992;2022-08-19T13:48:49;10.90;;;4.05;;
19482;SDS011;9882;51.166;6.992;2022-08-19T13:51:24;20.80;;;4.75;;
19482;SDS011;9882;51.166;6.992;2022-08-19T13:53:52;21.77;;;4.50;;
19482;SDS011;9882;51.166;6.992;2022-08-19T13:56:23;9.38;;;4.50;;
19482;SDS011;9882;51.166;6.992;2022-08-19T13:58:52;10.02;;;4.63;;
19482;SDS011;9882;51.166;6.992;2022-08-19T14:01:24;10.15;;;4.63;;
19482;SDS011;9882;51.166;6.992;2022-08-19T14:03:53;8.50;;;4.15;;
19482;SDS011;9882;51.166;6.992;2022-08-19T14:06:24;9.48;;;3.75;;
19482;SDS011;9882;51.166;6.992;2022-08-19T14:08:54;12.65;;;4.47;;
19482;SDS011;9882;51.166;6.992;2022-08-19T14:11:26;10.75;;;4.85;;
19482;SDS011;9882;51.166;6.992;2022-08-19T14:13:55;13.00;;;4.43;;
19482;SDS011;9882;51.166;6.992;2022-08-19T14:16:24;8.77;;;4.22;;
19482;SDS011;9882;51.166;6.992;2022-08-19T14:18:54;17.67;;;4.93;;
19482;SDS011;9882;51.166;6.992;2022-08-19T14:21:31;13.68;;;4.85;;
19482;SDS011;9882;51.166;6.992;2022-08-19T14:24:03;11.77;;;4.57;;
19482;SDS011;9882;51.166;6.992;2022-08-19T14:26:35;9.18;;;3.95;;
19482;SDS011;9882;51.166;6.992;2022-08-19T14:29:04;11.00;;;3.92;;
19482;SDS011;9882;51.166;6.992;2022-08-19T14:31:33;6.88;;;3.35;;
19482;SDS011;9882;51.166;6.992;2022-08-19T14:34:09;10.23;;;4.00;;
19482;SDS011;9882;51.166;6.992;2022-08-19T14:36:41;9.30;;;3.88;;
19482;SDS011;9882;51.166;6.992;2022-08-19T14:39:10;9.07;;;3.78;;
19482;SDS011;9882;51.166;6.992;2022-08-19T14:41:42;7.38;;;3.60;;
19482;SDS011;9882;51.166;6.992;2022-08-19T14:44:11;9.63;;;4.00;;
19482;SDS011;9882;51.166;6.992;2022-08-19T14:46:40;10.07;;;4.15;;
19482;SDS011;9882;51.166;6.992;2022-08-19T14:49:11;12.82;;;3.25;;
19482;SDS011;9882;51.166;6.992;2022-08-19T14:51:40;8.27;;;4.20;;
19482;SDS011;9882;51.166;6.992;2022-08-19T14:54:08;8.20;;;3.67;;
19482;SDS011;9882;51.166;6.992;2022-08-19T14:56:37;7.68;;;3.67;;
19482;SDS011;9882;51.166;6.992;2022-08-19T14:59:10;8.77;;;3.72;;
19482;SDS011;9882;51.166;6.992;2022-08-19T15:01:38;9.60;;;3.80;;
19482;SDS011;9882;51.166;6.992;2022-08-19T15:04:09;6.85;;;3.70;;
19482;SDS011;9882;51.166;6.992;2022-08-19T15:06:40;8.40;;;3.25;;
19482;SDS011;9882;51.166;6.992;2022-08-19T15:09:13;12.43;;;3.67;;
19482;SDS011;9882;51.166;6.992;2022-08-19T15:11:43;14.45;;;3.53;;
19482;SDS011;9882;51.166;6.992;2022-08-19T15:14:18;9.07;;;3.55;;
19482;SDS011;9882;51.166;6.992;2022-08-19T15:16:52;12.00;;;4.05;;
19482;SDS011;9882;51.166;6.992;2022-08-19T15:19:28;7.97;;;3.20;;
19482;SDS011;9882;51.166;6.992;2022-08-19T15:25:15;6.68;;;2.92;;
19482;SDS011;9882;51.166;6.992;2022-08-19T15:28:00;7.95;;;3.38;;